Time;durP1;ratioP1;P1;durP2;ratioP2;P2;SDS_P1;SDS_P2;PMS_P1;PMS_P2;Temp;Humidity;BMP_temperature;BMP_pressure;BME280_temperature;BME280_humidity;BME280_pressure;Samples;Min_cycle;Max_cycle;Signal;HPM_P1;HPM_P2
2023/07/14 00:08:30;;;;;;;15.38;12.57;;;;;;;26.44;74.72;100770.25;21150631;28;20059;-75
2023/07/14 00:18:55;;;;;;;15.10;12.40;;;;;;;26.31;78.07;100758.28;21278172;27;20142;-75
2023/07/14 00:29:34;;;;;;;18.80;12.98;;;;;;;26.26;78.83;100752.19;21254174;27;20108;-74
2023/07/14 00:39:58;;;;;;;17.23;12.77;;;;;;;26.22;76.91;100746.03;21219517;27;20043;-75
2023/07/14 00:50:02;;;;;;;20.23;13.40;;;;;;;26.21;77.59;100746.97;21246712;27;20072;-75
2023/07/14 01:00:31;;;;;;;19.13;13.82;;;;;;;26.19;77.89;100749.75;21229833;27;20043;-74
2023/07/14 01:10:56;;;;;;;18.40;13.23;;;;;;;25.92;80.86;100737.59;21229702;27;20043;-75
2023/07/14 01:21:22;;;;;;;17.27;13.20;;;;;;;25.87;80.88;100739.63;21143985;28;20040;-75
2023/07/14 01:31:47;;;;;;;16.67;12.63;;;;;;;25.74;82.32;100743.84;21086977;28;20048;-75
2023/07/14 01:42:10;;;;;;;16.73;13.13;;;;;;;25.81;79.90;100734.50;21073259;28;20542;-75
2023/07/14 01:52:35;;;;;;;16.45;12.23;;;;;;;25.71;81.27;100730.50;21045320;28;20048;-75
2023/07/14 02:02:59;;;;;;;16.65;12.02;;;;;;;25.66;81.59;100730.72;21057306;28;20052;-74
2023/07/14 02:13:24;;;;;;;17.58;12.50;;;;;;;25.58;82.72;100718.50;21055574;28;20056;-75
2023/07/14 02:23:49;;;;;;;19.92;12.88;;;;;;;25.43;84.42;100722.75;21045289;27;20056;-76
2023/07/14 02:34:16;;;;;;;17.65;12.77;;;;;;;25.42;85.35;100716.47;21223847;27;20051;-74
2023/07/14 02:44:39;;;;;;;16.92;12.57;;;;;;;25.39;86.18;100718.44;21197007;27;20039;-75
2023/07/14 02:55:03;;;;;;;18.10;12.27;;;;;;;25.59;82.94;100714.84;21222206;27;20135;-75
2023/07/14 03:05:26;;;;;;;17.00;12.73;;;;;;;25.54;83.59;100719.53;21208585;27;20231;-75
2023/07/14 03:15:51;;;;;;;16.42;11.98;;;;;;;25.53;82.68;100704.28;21245566;27;20046;-75
2023/07/14 03:26:13;;;;;;;18.52;12.98;;;;;;;25.80;79.67;100708.41;21305573;27;20043;-75
2023/07/14 03:36:38;;;;;;;16.20;11.52;;;;;;;26.09;77.13;100710.56;21333245;27;20049;-75
2023/07/14 03:47:02;;;;;;;14.90;10.55;;;;;;;26.45;75.36;100720.56;21320675;27;20055;-74
2023/07/14 03:57:26;;;;;;;17.73;10.73;;;;;;;26.96;72.00;100707.06;21332606;27;20050;-75
2023/07/14 04:07:49;;;;;;;16.90;10.20;;;;;;;27.44;71.15;100712.63;21318250;27;20047;-75
2023/07/14 04:18:13;;;;;;;19.02;10.75;;;;;;;27.99;67.53;100707.69;21277502;27;20713;-75
2023/07/14 04:28:37;;;;;;;15.20;10.02;;;;;;;28.60;64.80;100715.88;21275181;27;20042;-74
2023/07/14 04:39:07;;;;;;;12.60;9.23;;;;;;;29.30;60.45;100714.28;21276895;27;20043;-75
2023/07/14 04:49:30;;;;;;;13.93;9.93;;;;;;;30.03;60.93;100718.66;21214527;27;20107;-75
2023/07/14 04:59:54;;;;;;;17.70;9.65;;;;;;;30.74;56.64;100723.88;21216912;27;20050;-75
2023/07/14 05:10:17;;;;;;;15.77;9.73;;;;;;;31.27;50.28;100722.88;21216994;27;20047;-76
2023/07/14 05:20:43;;;;;;;12.52;8.27;;;;;;;31.90;46.47;100737.47;21214360;27;20692;-76
2023/07/14 05:31:09;;;;;;;14.65;9.00;;;;;;;32.60;45.69;100745.88;21216534;27;20047;-76
2023/07/14 05:41:33;;;;;;;11.63;8.40;;;;;;;33.19;43.47;100744.00;21211047;27;20051;-76
2023/07/14 05:51:35;;;;;;;11.00;7.13;;;;;;;33.76;40.65;100749.44;21240945;27;20035;-76
2023/07/14 06:02:00;;;;;;;11.20;7.68;;;;;;;34.68;38.97;100765.47;21226868;27;20051;-77
2023/07/14 06:12:23;;;;;;;10.60;6.97;;;;;;;35.51;37.40;100762.81;21237415;27;20088;-76
2023/07/14 06:22:48;;;;;;;10.07;6.97;;;;;;;36.16;34.87;100769.81;21223440;27;20597;-76
2023/07/14 06:33:12;;;;;;;13.18;7.28;;;;;;;36.70;33.71;100774.00;21174744;27;20407;-76
2023/07/14 06:43:37;;;;;;;12.23;7.37;;;;;;;37.26;33.07;100776.03;21137714;27;20046;-76
2023/07/14 06:54:00;;;;;;;10.25;7.07;;;;;;;37.66;32.09;100778.59;21136895;28;20364;-76
2023/07/14 07:04:24;;;;;;;14.70;7.13;;;;;;;37.76;31.45;100787.66;21134221;28;20079;-76
2023/07/14 07:14:47;;;;;;;11.70;7.10;;;;;;;37.94;31.35;100782.25;21120877;28;20451;-76
2023/07/14 07:25:12;;;;;;;10.48;6.75;;;;;;;38.36;30.89;100780.72;21136320;28;20099;-76
2023/07/14 07:35:39;;;;;;;10.00;6.35;;;;;;;38.64;30.75;100776.94;21219964;28;20111;-76
2023/07/14 07:46:03;;;;;;;9.60;6.18;;;;;;;38.85;29.88;100781.28;21206688;28;20047;-77
2023/07/14 07:56:11;;;;;;;12.07;6.60;;;;;;;38.85;30.04;100779.41;21230117;28;20055;-76
2023/07/14 08:06:37;;;;;;;10.90;6.85;;;;;;;38.80;29.76;100775.34;21215758;28;20496;-76
2023/07/14 08:17:01;;;;;;;11.25;7.22;;;;;;;39.00;29.27;100785.25;21222120;27;20605;-76
2023/07/14 08:27:26;;;;;;;9.67;6.50;;;;;;;39.13;29.85;100791.22;21229580;27;20051;-76
2023/07/14 08:37:50;;;;;;;11.65;6.30;;;;;;;39.40;29.76;100781.97;21217566;27;20092;-76
2023/07/14 08:48:22;;;;;;;;;;;;;;;39.61;29.91;100776.94;21232345;27;20050;-76
2023/07/14 08:58:47;;;;;;;10.77;6.43;;;;;;;39.83;29.83;100765.34;21231311;27;19926;-77
2023/07/14 09:09:32;;;;;;;8.65;6.32;;;;;;;40.14;29.25;100770.31;21210879;27;20051;-76
2023/07/14 09:20:24;;;;;;;11.95;6.60;;;;;;;40.53;28.83;100757.66;21189699;27;20108;-76
2023/07/14 09:30:52;;;;;;;8.07;6.10;;;;;;;41.10;28.18;100754.13;21149474;27;20407;-76
2023/07/14 09:41:18;;;;;;;9.90;6.65;;;;;;;41.10;27.70;100762.44;21142023;27;20054;-76
2023/07/14 09:52:02;;;;;;;9.30;6.47;;;;;;;41.23;27.41;100747.00;21127792;28;20140;-76
2023/07/14 10:02:30;;;;;;;8.70;6.03;;;;;;;41.25;27.38;100744.94;21141992;28;20052;-76
2023/07/14 10:12:54;;;;;;;8.00;5.97;;;;;;;41.08;27.59;100747.91;21125245;27;20044;-76
2023/07/14 10:23:19;;;;;;;9.40;6.22;;;;;;;41.03;27.85;100744.75;21210813;27;20047;-76
2023/07/14 10:33:59;;;;;;;9.02;6.60;;;;;;;40.83;28.20;100752.56;21199450;27;20067;-76
2023/07/14 10:44:29;;;;;;;14.05;7.45;;;;;;;40.48;28.96;100740.69;21218990;27;20057;-76
2023/07/14 10:54:59;;;;;;;13.30;7.45;;;;;;;40.77;28.65;100734.69;21221299;27;20082;-75
2023/07/14 11:05:27;;;;;;;8.90;6.00;;;;;;;41.33;28.08;100728.28;21219732;27;20057;-77
2023/07/14 11:15:58;;;;;;;10.20;6.43;;;;;;;41.44;27.53;100723.41;21218483;27;20059;-76
2023/07/14 11:26:29;;;;;;;11.70;6.63;;;;;;;41.59;27.56;100697.59;21194323;27;20101;-77
2023/07/14 11:37:06;;;;;;;9.10;6.03;;;;;;;41.76;27.60;100695.59;21132937;28;20056;-76
2023/07/14 11:47:34;;;;;;;11.13;7.03;;;;;;;41.38;27.17;100686.16;21138271;28;20066;-76
2023/07/14 11:58:22;;;;;;;11.75;6.80;;;;;;;40.89;26.97;100693.69;21217942;27;20074;-77
2023/07/14 12:08:45;;;;;;;13.13;7.72;;;;;;;40.32;27.11;100688.06;21220020;27;20062;-77
2023/07/14 12:19:26;;;;;;;10.67;7.80;;;;;;;40.29;27.56;100682.88;21214603;27;20151;-76
2023/07/14 12:29:51;;;;;;;10.73;7.70;;;;;;;40.31;27.10;100671.63;21160879;27;20043;-76
2023/07/14 12:40:17;;;;;;;13.10;7.25;;;;;;;40.74;26.86;100663.03;21226727;27;20142;-77
2023/07/14 12:50:41;;;;;;;11.48;7.20;;;;;;;40.91;27.01;100658.34;21216522;27;20050;-76
2023/07/14 13:01:05;;;;;;;11.02;6.75;;;;;;;41.08;26.51;100634.28;21228580;27;20162;-77
2023/07/14 13:11:37;;;;;;;12.25;6.97;;;;;;;41.11;26.40;100632.00;21228831;27;20509;-77
2023/07/14 13:22:04;;;;;;;8.55;6.40;;;;;;;40.98;26.67;100624.22;21225586;27;20059;-77
2023/07/14 13:32:27;;;;;;;13.18;7.72;;;;;;;40.81;26.34;100614.22;21228247;27;20072;-77
2023/07/14 13:42:52;;;;;;;12.20;7.32;;;;;;;40.48;27.05;100620.78;21213862;27;20439;-76
2023/07/14 13:53:14;;;;;;;9.95;7.60;;;;;;;40.48;26.92;100615.25;21179674;27;20134;-77
2023/07/14 14:03:25;;;;;;;10.40;7.45;;;;;;;40.51;26.50;100612.97;21197472;27;20047;-76
2023/07/14 14:13:48;;;;;;;11.77;7.97;;;;;;;40.56;26.42;100604.16;21143226;27;20112;-76
2023/07/14 14:24:12;;;;;;;11.95;7.00;;;;;;;40.28;26.75;100602.78;21135459;27;20047;-77
2023/07/14 14:34:34;;;;;;;10.48;7.40;;;;;;;40.24;26.85;100604.16;21227862;27;20043;-76
2023/07/14 14:44:58;;;;;;;10.50;6.45;;;;;;;40.12;27.05;100612.75;21226656;27;20416;-76
2023/07/14 14:55:21;;;;;;;10.57;6.45;;;;;;;39.92;26.93;100597.50;21212196;27;20047;-77
2023/07/14 15:05:46;;;;;;;10.55;7.47;;;;;;;39.78;26.89;100596.22;21210878;27;20039;-77
2023/07/14 15:16:10;;;;;;;10.45;6.88;;;;;;;39.12;27.69;100609.06;21168382;27;20070;-77
2023/07/14 15:26:41;;;;;;;8.50;6.72;;;;;;;38.35;29.00;100612.56;21113894;28;20427;-77
2023/07/14 15:37:04;;;;;;;13.95;6.60;;;;;;;37.31;30.81;100620.31;21054607;28;20098;-76
2023/07/14 15:47:29;;;;;;;10.05;6.53;;;;;;;36.45;32.17;100628.69;21056066;28;20040;-76
2023/07/14 15:57:52;;;;;;;10.30;6.93;;;;;;;34.06;39.15;100632.81;21124798;28;20112;-75
2023/07/14 16:19:42;;;;;;;9.65;6.88;;;;;;;33.07;45.62;100625.41;21083655;28;20392;-74
2023/07/14 16:30:14;;;;;;;12.88;7.38;;;;;;;32.97;46.96;100631.75;21114656;28;20040;-75
2023/07/14 16:40:39;;;;;;;12.15;8.00;;;;;;;32.71;50.29;100628.34;21140873;28;20052;-74
2023/07/14 16:51:02;;;;;;;14.90;8.40;;;;;;;32.53;53.87;100632.50;21138477;28;20052;-75
2023/07/14 17:01:27;;;;;;;14.48;7.40;;;;;;;32.23;52.47;100624.81;21148899;28;20086;-75
2023/07/14 17:11:29;;;;;;;13.65;7.30;;;;;;;31.82;53.99;100630.66;21160658;27;20050;-75
2023/07/14 17:21:56;;;;;;;12.38;7.45;;;;;;;31.43;54.96;100634.44;21142714;27;20054;-75
2023/07/14 17:32:19;;;;;;;11.57;7.03;;;;;;;30.91;59.97;100642.75;21049950;28;20142;-75
2023/07/14 17:42:43;;;;;;;12.95;6.95;;;;;;;30.80;62.45;100647.09;21082691;28;20061;-75
2023/07/14 17:53:11;;;;;;;11.93;7.38;;;;;;;30.72;58.04;100659.53;21144030;28;20082;-74
2023/07/14 18:03:23;;;;;;;9.60;6.38;;;;;;;30.53;57.08;100664.47;21159228;28;20047;-74
2023/07/14 18:13:46;;;;;;;11.70;7.10;;;;;;;30.24;54.97;100661.00;21149671;27;20062;-75
2023/07/14 18:24:17;;;;;;;13.02;7.50;;;;;;;30.23;55.61;100673.75;21208312;27;20047;-74
2023/07/14 18:34:40;;;;;;;13.20;8.02;;;;;;;30.05;61.54;100688.63;21127571;27;20059;-75
2023/07/14 18:45:14;;;;;;;15.95;8.68;;;;;;;29.79;64.16;100690.31;21140479;28;20040;-74
2023/07/14 18:55:41;;;;;;;13.02;9.15;;;;;;;29.62;65.83;100695.94;21111923;28;20047;-74
2023/07/14 19:06:06;;;;;;;14.93;8.15;;;;;;;29.41;67.70;100703.63;21125425;28;20063;-74
2023/07/14 19:16:17;;;;;;;12.55;7.72;;;;;;;29.15;70.65;100707.97;21130313;28;20503;-74
2023/07/14 19:26:42;;;;;;;15.00;8.13;;;;;;;29.12;72.24;100697.28;21151812;27;20055;-74
2023/07/14 19:36:45;;;;;;;11.95;8.45;;;;;;;28.95;74.62;100691.16;21235625;27;20049;-74
2023/07/14 19:47:16;;;;;;;12.48;8.85;;;;;;;28.67;77.57;100695.53;21182263;28;20055;-74
2023/07/14 19:57:39;;;;;;;11.63;7.63;;;;;;;28.69;80.82;100696.28;21182292;28;20082;-74
2023/07/14 20:07:43;;;;;;;14.10;7.40;;;;;;;28.58;79.10;100692.47;21230392;28;20047;-75
2023/07/14 20:18:12;;;;;;;11.77;7.68;;;;;;;28.18;78.04;100694.84;21286906;27;20081;-74
2023/07/14 20:28:38;;;;;;;14.45;7.45;;;;;;;28.20;79.22;100692.91;21319320;27;20099;-75
2023/07/14 20:39:00;;;;;;;12.50;7.60;;;;;;;28.18;78.68;100692.13;21317546;27;20051;-75
2023/07/14 20:49:25;;;;;;;14.55;8.90;;;;;;;28.12;83.67;100682.47;21318127;27;20051;-76
2023/07/14 20:59:49;;;;;;;15.43;8.60;;;;;;;28.02;85.46;100683.09;21317060;27;20043;-75
2023/07/14 21:10:17;;;;;;;14.90;7.82;;;;;;;27.98;86.16;100678.78;21235629;27;20043;-74
2023/07/14 21:20:40;;;;;;;14.43;8.15;;;;;;;27.87;89.34;100667.69;21062699;28;20423;-75
2023/07/14 21:31:08;;;;;;;16.38;8.43;;;;;;;27.43;86.28;100673.78;21122170;28;20113;-75
2023/07/14 21:41:31;;;;;;;13.85;8.35;;;;;;;27.73;85.77;100677.50;21128909;28;20483;-75
2023/07/14 21:51:56;;;;;;;14.32;8.02;;;;;;;27.61;86.11;100674.59;21129216;28;20051;-75
2023/07/14 22:02:19;;;;;;;14.43;8.20;;;;;;;27.45;90.46;100666.41;21142503;28;20054;-75
2023/07/14 22:12:23;;;;;;;13.82;8.35;;;;;;;27.50;88.08;100653.50;21165781;27;20146;-75
2023/07/14 22:22:47;;;;;;;16.35;8.85;;;;;;;27.44;91.71;100644.81;21224289;27;20062;-74
2023/07/14 22:33:20;;;;;;;12.98;8.20;;;;;;;27.41;92.44;100643.13;21140230;28;20082;-75
2023/07/14 22:43:43;;;;;;;15.02;8.38;;;;;;;27.17;98.05;100634.53;21138593;28;20067;-75
2023/07/14 22:54:09;;;;;;;13.00;7.72;;;;;;;27.20;95.90;100630.78;21136750;28;20113;-75
2023/07/14 23:04:32;;;;;;;15.90;8.43;;;;;;;27.00;95.66;100622.84;21124659;28;20138;-75
2023/07/14 23:14:56;;;;;;;17.40;13.00;;;;;;;26.85;97.00;100628.09;21163071;27;20134;-74
2023/07/14 23:25:21;;;;;;;13.43;8.70;;;;;;;26.59;98.80;100621.38;21220969;27;20051;-75
2023/07/14 23:35:47;;;;;;;10.30;7.40;;;;;;;26.77;97.24;100622.25;21219377;27;20054;-75
2023/07/14 23:46:10;;;;;;;15.50;7.75;;;;;;;26.39;99.62;100617.94;21209571;27;20429;-75
2023/07/14 23:56:35;;;;;;;12.85;8.10;;;;;;;26.53;98.92;100615.41;21236299;27;20055;-75
